Impacts METAR Board
IDs:

KNEW - New Orleans/Lakefron, LA, US

Updated at: 2000 UTC 15 Aug 2018
Potential Impact None Slight Moderate High
Time 15/08Z 15/09Z 15/10Z 15/11Z 15/12Z 15/13Z 15/14Z 15/15Z 15/16Z 15/17Z 15/18Z 15/19Z 15/20Z
Temp81 82 83 84 84 85 86 87 88 89 90 91 93
Dewpt75 74 74 74 75 76 76 76 76 76 76 75 74
Altim30.01 30.01 30.01 30.00 30.02 30.03 30.05 30.05 30.05 30.05 30.04 30.04 30.03
VIS10 10 10 10 9 10 10 10 10 9 10 10 10
CIG-- -- -- -- -- -- -- -- -- -- -- -- --
CoverCLRCLRCLRCLRCLRCLRCLRCLRCLRCLRCLRFEWSCT
FltCatVFRVFRVFRVFRVFRVFRVFRVFRVFRVFRVFRVFRVFR
WX--------------------------
WDir18021023030031032032032033032033033020
WSpd4 5 4 5 7 8 8 7 6 6 5 4 4
WGst-- -- -- -- -- -- -- -- -- -- -- -- --
Raw hourly METARs
KNEW 150753Z AUTO 18004KT 10SM CLR 27/24 A3001 RMK AO2 SLP155 T02720239
KNEW 150853Z AUTO 21005KT 10SM CLR 28/23 A3001 RMK AO2 SLP154 T02780233 50002
KNEW 150953Z AUTO 23004KT 10SM CLR 28/23 A3001 RMK AO2 SLP155 T02830233
KNEW 151053Z AUTO 30005KT 10SM CLR 29/23 A3000 RMK AO2 SLP154 T02890233
KNEW 151153Z 31007KT 9SM CLR 29/24 A3002 RMK AO2 SLP159 T02890239 10289 20267 53004
KNEW 151253Z 32008KT 10SM CLR 29/24 A3003 RMK AO2 SLP164 T02940244
KNEW 151353Z 32008KT 10SM CLR 30/24 A3005 RMK AO2 SLP168 T03000244
KNEW 151453Z 32007KT 10SM CLR 31/24 A3005 RMK AO2 SLP168 T03060244 50009
KNEW 151553Z 33006KT 10SM CLR 31/24 A3005 RMK AO2 SLP170 T03110244
KNEW 151653Z 32006KT 9SM CLR 32/24 A3005 RMK AO2 LTG DSNT SE SLP168 T03170244
KNEW 151753Z 33005KT 10SM CLR 32/24 A3004 RMK AO2 LTG DSNT E AND SE SLP166 T03220244 10322 20289 58002
KNEW 151853Z 33004KT 10SM FEW040 33/24 A3004 RMK AO2 LTG DSNT N AND NE AND S SLP165 T03280239
KNEW 151953Z 02004KT 10SM SCT030 34/23 A3003 RMK AO2 LTG DSNT N AND NE AND S SLP164 T03390233



Page loaded:  20:44 UTC  |   01:44 PM Pacific  |   02:44 PM Mountain  |   03:44 PM Central  |   04:44 PM Eastern

 

ADVISORIES

FORECASTS

FORECASTS

OBSERVATIONS

USER TOOLS

ABOUT US